Time;durP1;ratioP1;P1;durP2;ratioP2;P2;SDS_P1;SDS_P2;PMS_P1;PMS_P2;Temp;Humidity;BMP_temperature;BMP_pressure;BME280_temperature;BME280_humidity;BME280_pressure;Samples;Min_cycle;Max_cycle;Signal;HPM_P1;HPM_P2
2022/07/18 00:01:44;;;;;;;2.28;1.98;;;;;;;;;;5083520;28;20016;-71
2022/07/18 00:04:10;;;;;;;4.00;2.20;;;;;;;;;;5086875;28;20097;-71
2022/07/18 00:06:36;;;;;;;3.10;2.00;;;;;;;;;;5079498;28;20032;-70
2022/07/18 00:09:03;;;;;;;7.38;2.20;;;;;;;;;;5076204;28;20024;-71
2022/07/18 00:11:29;;;;;;;4.43;2.08;;;;;;;;;;5087715;28;20111;-71
2022/07/18 00:13:55;;;;;;;3.78;1.92;;;;;;;;;;5087140;28;20032;-71
2022/07/18 00:16:22;;;;;;;3.88;1.88;;;;;;;;;;5079160;28;20097;-70
2022/07/18 00:18:49;;;;;;;2.78;1.98;;;;;;;;;;5084549;28;20028;-71
2022/07/18 00:21:15;;;;;;;68.63;4.60;;;;;;;;;;5086170;28;20040;-70
2022/07/18 00:23:41;;;;;;;10.27;2.20;;;;;;;;;;5076578;28;20033;-70
2022/07/18 00:26:07;;;;;;;2.58;1.75;;;;;;;;;;5096123;28;20032;-71
2022/07/18 00:28:33;;;;;;;2.15;1.77;;;;;;;;;;5086578;28;20028;-70
2022/07/18 00:30:59;;;;;;;3.63;1.70;;;;;;;;;;5088654;28;20094;-71
2022/07/18 00:33:25;;;;;;;2.40;1.75;;;;;;;;;;5085137;28;20117;-70
2022/07/18 00:35:51;;;;;;;2.22;1.90;;;;;;;;;;5090848;28;20037;-71
2022/07/18 00:38:17;;;;;;;2.78;1.70;;;;;;;;;;5088509;28;20153;-70
2022/07/18 00:40:44;;;;;;;2.13;1.73;;;;;;;;;;5079088;28;20094;-71
2022/07/18 00:43:13;;;;;;;2.38;2.00;;;;;;;;;;5089188;28;20040;-71
2022/07/18 00:45:39;;;;;;;4.65;2.10;;;;;;;;;;5082175;28;20021;-71
2022/07/18 00:48:06;;;;;;;3.45;1.73;;;;;;;;;;5090610;28;20385;-71
2022/07/18 00:50:33;;;;;;;4.72;2.05;;;;;;;;;;5089308;28;20020;-71
2022/07/18 00:52:59;;;;;;;5.70;2.08;;;;;;;;;;5074669;28;20036;-71
2022/07/18 00:55:25;;;;;;;6.10;1.67;;;;;;;;;;5075895;28;20035;-71
2022/07/18 00:57:52;;;;;;;4.20;1.95;;;;;;;;;;5087449;28;20124;-71
2022/07/18 01:03:03;;;;;;;2.75;1.90;;;;;;;;;;5077411;28;20078;-70
2022/07/18 01:05:29;;;;;;;2.10;1.88;;;;;;;;;;5075522;28;20025;-71
2022/07/18 01:07:56;;;;;;;2.92;2.17;;;;;;;;;;5086250;28;20039;-70
2022/07/18 01:10:22;;;;;;;5.20;1.95;;;;;;;;;;5079967;28;20480;-71
2022/07/18 01:12:48;;;;;;;2.17;1.70;;;;;;;;;;5083228;28;20115;-71
2022/07/18 01:15:14;;;;;;;2.35;1.80;;;;;;;;;;5085113;28;20077;-71
2022/07/18 01:17:40;;;;;;;8.70;2.40;;;;;;;;;;5087675;28;20025;-70
2022/07/18 01:20:07;;;;;;;4.45;1.90;;;;;;;;;;5075040;28;20032;-71
2022/07/18 01:22:33;;;;;;;3.83;2.00;;;;;;;;;;5076942;28;20028;-71
2022/07/18 01:24:59;;;;;;;2.58;1.90;;;;;;;;;;5075348;28;20028;-71
2022/07/18 01:27:26;;;;;;;3.42;2.28;;;;;;;;;;5089292;28;20397;-71
2022/07/18 01:29:53;;;;;;;1.95;1.67;;;;;;;;;;5091709;28;20038;-70
2022/07/18 01:32:19;;;;;;;3.22;2.00;;;;;;;;;;5081260;28;20025;-71
2022/07/18 01:34:49;;;;;;;2.85;1.70;;;;;;;;;;5086978;28;20029;-71
2022/07/18 01:37:15;;;;;;;4.25;1.80;;;;;;;;;;5075438;28;20025;-71
2022/07/18 01:39:41;;;;;;;4.53;1.77;;;;;;;;;;5088600;28;20040;-70
2022/07/18 01:42:08;;;;;;;2.42;1.70;;;;;;;;;;5079804;28;20452;-71
2022/07/18 01:44:34;;;;;;;2.97;1.80;;;;;;;;;;5077827;28;20539;-71
2022/07/18 01:47:01;;;;;;;4.32;1.85;;;;;;;;;;5074649;28;20036;-71
2022/07/18 01:49:28;;;;;;;2.17;1.70;;;;;;;;;;5075496;28;20017;-70
2022/07/18 01:51:54;;;;;;;4.10;2.10;;;;;;;;;;5088502;28;20037;-71
2022/07/18 01:54:21;;;;;;;3.13;1.90;;;;;;;;;;5082191;28;20479;-71
2022/07/18 01:56:47;;;;;;;2.58;1.83;;;;;;;;;;5077282;28;20040;-71
2022/07/18 01:59:13;;;;;;;3.58;2.00;;;;;;;;;;5074842;28;20056;-70
2022/07/18 02:01:39;;;;;;;4.28;2.00;;;;;;;;;;5089550;28;20024;-71
2022/07/18 02:04:05;;;;;;;3.33;1.85;;;;;;;;;;5079275;28;20405;-71
2022/07/18 02:06:31;;;;;;;5.55;2.20;;;;;;;;;;5074754;28;20025;-71
2022/07/18 02:08:58;;;;;;;2.25;1.80;;;;;;;;;;5080061;28;20016;-71
2022/07/18 02:11:24;;;;;;;5.00;1.92;;;;;;;;;;5080636;28;20024;-71
2022/07/18 02:13:50;;;;;;;4.75;1.90;;;;;;;;;;5089734;28;20071;-70
2022/07/18 02:16:16;;;;;;;4.50;1.83;;;;;;;;;;5090701;28;20047;-71
2022/07/18 02:18:42;;;;;;;2.60;1.90;;;;;;;;;;5078454;28;20478;-71
2022/07/18 02:21:08;;;;;;;4.25;2.45;;;;;;;;;;5074004;28;20067;-71
2022/07/18 02:23:35;;;;;;;4.35;2.03;;;;;;;;;;5075691;28;20474;-71
2022/07/18 02:26:01;;;;;;;4.07;2.40;;;;;;;;;;5080214;28;20032;-71
2022/07/18 02:28:27;;;;;;;4.53;2.45;;;;;;;;;;5074264;28;20021;-71
2022/07/18 02:30:53;;;;;;;4.25;2.00;;;;;;;;;;5087967;28;20101;-71
2022/07/18 02:33:19;;;;;;;4.25;2.13;;;;;;;;;;5081563;28;20036;-71
2022/07/18 02:35:45;;;;;;;3.55;2.13;;;;;;;;;;5084682;28;20039;-71
2022/07/18 02:38:11;;;;;;;4.40;2.63;;;;;;;;;;5073964;28;20012;-71
2022/07/18 02:40:38;;;;;;;2.25;2.05;;;;;;;;;;5084298;28;20028;-70
2022/07/18 02:43:04;;;;;;;2.92;2.17;;;;;;;;;;5086281;28;20032;-70
2022/07/18 02:45:30;;;;;;;4.60;2.50;;;;;;;;;;5092545;28;20078;-71
2022/07/18 02:47:57;;;;;;;4.70;2.40;;;;;;;;;;5085368;28;20454;-70
2022/07/18 02:50:23;;;;;;;8.13;2.30;;;;;;;;;;5080230;28;20036;-71
2022/07/18 02:52:50;;;;;;;2.88;2.20;;;;;;;;;;5090955;28;20048;-71
2022/07/18 02:55:16;;;;;;;5.20;2.75;;;;;;;;;;5075292;28;20037;-71
2022/07/18 02:57:42;;;;;;;4.45;2.28;;;;;;;;;;5075508;28;20474;-71
2022/07/18 03:00:10;;;;;;;5.90;2.42;;;;;;;;;;5087628;28;20033;-71
2022/07/18 03:02:36;;;;;;;3.92;2.20;;;;;;;;;;5080701;28;20420;-71
2022/07/18 03:05:03;;;;;;;3.50;2.33;;;;;;;;;;5082229;28;20028;-70
2022/07/18 03:07:29;;;;;;;4.55;2.28;;;;;;;;;;5076998;28;20059;-71
2022/07/18 03:09:56;;;;;;;4.80;2.75;;;;;;;;;;5090129;28;20390;-71
2022/07/18 03:12:22;;;;;;;6.75;2.80;;;;;;;;;;5073627;28;20470;-71
2022/07/18 03:14:48;;;;;;;5.70;2.60;;;;;;;;;;5073020;28;20173;-70
2022/07/18 03:17:14;;;;;;;9.15;3.45;;;;;;;;;;5073453;28;20058;-70
2022/07/18 03:19:40;;;;;;;4.00;2.60;;;;;;;;;;5082886;28;20020;-70
2022/07/18 03:22:09;;;;;;;6.05;2.90;;;;;;;;;;5082117;28;20021;-71
2022/07/18 03:24:35;;;;;;;4.57;2.53;;;;;;;;;;5074574;28;20046;-70
2022/07/18 03:27:01;;;;;;;4.13;2.50;;;;;;;;;;5091663;28;20028;-70
2022/07/18 03:29:27;;;;;;;5.20;2.78;;;;;;;;;;5083441;28;20035;-71
2022/07/18 03:31:53;;;;;;;3.55;2.35;;;;;;;;;;5075814;28;20020;-71
2022/07/18 03:34:19;;;;;;;5.63;2.75;;;;;;;;;;5089121;28;20047;-71
2022/07/18 03:36:45;;;;;;;4.53;2.58;;;;;;;;;;5085822;28;20024;-70
2022/07/18 03:39:13;;;;;;;4.53;2.20;;;;;;;;;;5090916;28;20534;-70
2022/07/18 03:41:39;;;;;;;7.93;2.55;;;;;;;;;;5089352;28;20043;-71
2022/07/18 03:44:05;;;;;;;6.30;2.67;;;;;;;;;;5079086;28;20020;-70
2022/07/18 03:46:32;;;;;;;5.00;2.60;;;;;;;;;;5072687;28;20025;-71
2022/07/18 03:48:58;;;;;;;4.40;2.50;;;;;;;;;;5081362;28;20529;-70
2022/07/18 03:51:25;;;;;;;3.92;2.13;;;;;;;;;;5087204;28;20059;-71
2022/07/18 03:53:51;;;;;;;4.90;2.58;;;;;;;;;;5086156;28;20036;-71
2022/07/18 03:56:17;;;;;;;7.50;2.67;;;;;;;;;;5086510;28;20032;-70
2022/07/18 03:58:43;;;;;;;5.95;2.53;;;;;;;;;;5072959;28;20049;-70
2022/07/18 04:01:10;;;;;;;6.90;2.60;;;;;;;;;;5074219;28;20028;-71
2022/07/18 04:03:36;;;;;;;4.82;2.53;;;;;;;;;;5077394;28;20525;-71
2022/07/18 04:06:02;;;;;;;4.05;2.45;;;;;;;;;;5072796;28;20029;-70
2022/07/18 04:08:28;;;;;;;7.70;2.90;;;;;;;;;;5073092;28;21722;-71
2022/07/18 04:10:54;;;;;;;9.27;2.58;;;;;;;;;;5072535;28;20097;-70
2022/07/18 04:13:20;;;;;;;6.38;2.70;;;;;;;;;;5084371;28;20028;-70
2022/07/18 04:15:46;;;;;;;3.92;2.10;;;;;;;;;;5092010;28;20070;-71
2022/07/18 04:18:12;;;;;;;10.65;2.67;;;;;;;;;;5088080;28;20027;-70
2022/07/18 04:20:39;;;;;;;7.07;2.58;;;;;;;;;;5085877;28;20039;-70
2022/07/18 04:23:06;;;;;;;8.70;3.08;;;;;;;;;;5073677;28;20024;-71
2022/07/18 04:25:36;;;;;;;4.95;2.40;;;;;;;;;;5088053;28;20032;-71
2022/07/18 04:28:03;;;;;;;7.70;2.50;;;;;;;;;;5082928;28;20458;-70
2022/07/18 04:30:29;;;;;;;8.32;2.70;;;;;;;;;;5088120;28;20036;-70
2022/07/18 04:32:56;;;;;;;19.05;3.15;;;;;;;;;;5072226;28;20048;-70
2022/07/18 04:35:23;;;;;;;34.78;4.20;;;;;;;;;;5076666;28;20048;-70
2022/07/18 04:37:49;;;;;;;10.57;2.88;;;;;;;;;;5082339;28;20047;-69
2022/07/18 04:40:16;;;;;;;12.35;3.10;;;;;;;;;;5079942;28;20398;-71
2022/07/18 04:42:42;;;;;;;15.35;3.10;;;;;;;;;;5082231;28;20483;-71
2022/07/18 04:45:09;;;;;;;6.90;2.60;;;;;;;;;;5084225;28;20024;-71
2022/07/18 04:47:35;;;;;;;8.18;2.60;;;;;;;;;;5084611;28;20020;-71
2022/07/18 04:50:01;;;;;;;5.72;2.30;;;;;;;;;;5089734;28;20470;-69
2022/07/18 04:52:28;;;;;;;3.63;2.40;;;;;;;;;;5081380;28;20044;-69
2022/07/18 04:54:54;;;;;;;6.97;2.47;;;;;;;;;;5085772;28;20036;-69
2022/07/18 04:57:20;;;;;;;9.20;2.88;;;;;;;;;;5090051;28;20059;-72
2022/07/18 04:59:46;;;;;;;9.50;3.53;;;;;;;;;;5079661;28;20035;-74
2022/07/18 05:02:12;;;;;;;10.88;3.78;;;;;;;;;;5083852;28;20374;-73
2022/07/18 05:04:39;;;;;;;10.65;4.45;;;;;;;;;;5090137;28;20027;-71
2022/07/18 05:07:06;;;;;;;8.38;3.60;;;;;;;;;;5080382;28;20020;-73
2022/07/18 05:09:32;;;;;;;11.13;3.65;;;;;;;;;;5086531;28;20397;-75
2022/07/18 05:11:58;;;;;;;6.55;3.50;;;;;;;;;;5094578;28;20039;-82
2022/07/18 05:14:25;;;;;;;5.03;3.22;;;;;;;;;;5094697;28;20051;-78
2022/07/18 05:16:51;;;;;;;11.05;3.85;;;;;;;;;;5091477;28;20024;-78
2022/07/18 05:19:17;;;;;;;9.18;3.63;;;;;;;;;;5089983;28;20056;-82
2022/07/18 05:21:44;;;;;;;8.65;3.55;;;;;;;;;;5093331;28;20024;-75
2022/07/18 05:24:10;;;;;;;11.50;3.70;;;;;;;;;;5091190;28;20036;-74
2022/07/18 05:26:36;;;;;;;8.95;3.63;;;;;;;;;;5095797;28;20024;-77
2022/07/18 05:29:02;;;;;;;6.15;3.10;;;;;;;;;;5075370;28;20513;-74
2022/07/18 05:31:28;;;;;;;4.63;3.20;;;;;;;;;;5084353;28;20056;-71
2022/07/18 05:33:54;;;;;;;7.05;3.50;;;;;;;;;;5084473;28;20028;-71
2022/07/18 05:36:20;;;;;;;10.43;4.10;;;;;;;;;;5091421;28;21656;-73
2022/07/18 05:38:46;;;;;;;4.85;3.65;;;;;;;;;;5091886;28;20031;-73
2022/07/18 05:41:12;;;;;;;11.02;3.20;;;;;;;;;;5087693;28;20020;-72
2022/07/18 05:43:38;;;;;;;6.70;2.80;;;;;;;;;;5084332;28;20506;-73
2022/07/18 05:46:05;;;;;;;7.18;3.10;;;;;;;;;;5091295;28;20040;-73
2022/07/18 05:48:31;;;;;;;5.53;3.50;;;;;;;;;;5095663;28;20028;-73
2022/07/18 05:50:57;;;;;;;5.18;3.25;;;;;;;;;;5087086;28;20028;-72
2022/07/18 05:53:23;;;;;;;7.75;3.13;;;;;;;;;;5093437;27;20497;-74
2022/07/18 05:55:49;;;;;;;8.43;2.80;;;;;;;;;;5082932;28;20132;-70
2022/07/18 05:58:15;;;;;;;10.00;3.28;;;;;;;;;;5094111;28;20077;-72
2022/07/18 06:00:41;;;;;;;8.15;3.15;;;;;;;;;;5091996;28;20028;-71
2022/07/18 06:03:10;;;;;;;7.38;3.40;;;;;;;;;;5094852;28;20107;-70
2022/07/18 06:05:36;;;;;;;10.35;3.75;;;;;;;;;;5079139;28;20016;-70
2022/07/18 06:08:02;;;;;;;13.23;3.33;;;;;;;;;;5084940;28;20033;-70
2022/07/18 06:10:28;;;;;;;5.90;3.42;;;;;;;;;;5102786;28;20020;-69
2022/07/18 06:12:55;;;;;;;11.70;3.75;;;;;;;;;;5094862;28;20023;-72
2022/07/18 06:15:22;;;;;;;9.48;3.63;;;;;;;;;;5093025;28;20036;-71
2022/07/18 06:17:48;;;;;;;8.77;3.95;;;;;;;;;;5099451;28;20023;-69
2022/07/18 06:20:14;;;;;;;27.80;5.80;;;;;;;;;;5101146;28;20035;-71
2022/07/18 06:22:40;;;;;;;7.43;3.88;;;;;;;;;;5092819;28;20032;-72
2022/07/18 06:25:07;;;;;;;6.43;3.80;;;;;;;;;;5088375;28;20454;-72
2022/07/18 06:27:35;;;;;;;7.78;4.15;;;;;;;;;;5088452;28;20027;-72
2022/07/18 06:30:04;;;;;;;7.63;3.88;;;;;;;;;;5093192;28;20028;-71
2022/07/18 06:32:30;;;;;;;8.80;4.28;;;;;;;;;;5091715;28;20035;-72
2022/07/18 06:34:56;;;;;;;10.95;4.13;;;;;;;;;;5087816;28;20040;-71
2022/07/18 06:37:22;;;;;;;8.70;3.83;;;;;;;;;;5084519;28;20031;-71
2022/07/18 06:39:48;;;;;;;8.80;4.60;;;;;;;;;;5080438;28;20059;-71
2022/07/18 06:42:14;;;;;;;12.40;4.32;;;;;;;;;;5085355;28;20073;-74
2022/07/18 06:44:40;;;;;;;11.95;3.60;;;;;;;;;;5086855;28;20427;-69
2022/07/18 06:47:06;;;;;;;15.57;4.05;;;;;;;;;;5080115;28;20016;-70
2022/07/18 06:49:32;;;;;;;10.23;4.13;;;;;;;;;;5082565;28;20119;-69
2022/07/18 06:51:58;;;;;;;9.55;4.10;;;;;;;;;;5081235;28;20040;-70
2022/07/18 06:54:27;;;;;;;4.82;3.30;;;;;;;;;;5084585;28;20048;-74
2022/07/18 06:56:54;;;;;;;7.60;3.38;;;;;;;;;;5084984;28;20078;-73
2022/07/18 06:59:20;;;;;;;6.07;3.20;;;;;;;;;;5091979;28;20038;-70
2022/07/18 07:01:46;;;;;;;11.73;4.00;;;;;;;;;;5093044;28;20024;-70
2022/07/18 07:04:12;;;;;;;10.38;4.20;;;;;;;;;;5086894;28;20073;-75
2022/07/18 07:06:47;;;;;;;10.63;4.40;;;;;;;;;;5085057;28;20020;-74
2022/07/18 07:09:13;;;;;;;15.52;4.70;;;;;;;;;;5083493;28;20088;-76
2022/07/18 07:11:42;;;;;;;11.15;3.70;;;;;;;;;;5087507;28;20036;-72
2022/07/18 07:14:11;;;;;;;10.48;4.15;;;;;;;;;;5084937;28;20055;-70
2022/07/18 07:16:37;;;;;;;12.48;4.85;;;;;;;;;;5092968;28;20020;-73
2022/07/18 07:19:07;;;;;;;15.90;4.57;;;;;;;;;;5091761;28;20043;-73
2022/07/18 07:21:33;;;;;;;17.40;5.70;;;;;;;;;;5085618;28;20040;-77
2022/07/18 07:23:59;;;;;;;13.25;5.80;;;;;;;;;;5090125;28;20027;-76
2022/07/18 07:26:25;;;;;;;15.35;5.72;;;;;;;;;;5082471;28;20020;-79
2022/07/18 07:28:51;;;;;;;16.65;5.57;;;;;;;;;;5085660;28;20054;-76
2022/07/18 07:31:17;;;;;;;10.65;4.43;;;;;;;;;;5085202;28;20032;-77
2022/07/18 07:33:44;;;;;;;4.90;3.40;;;;;;;;;;5090692;28;20020;-75
2022/07/18 07:36:10;;;;;;;8.45;3.80;;;;;;;;;;5085662;28;20431;-74
2022/07/18 07:38:37;;;;;;;7.07;3.47;;;;;;;;;;5086127;28;20020;-76
2022/07/18 07:41:04;;;;;;;7.03;3.40;;;;;;;;;;5089745;28;20028;-75
2022/07/18 07:43:30;;;;;;;7.47;3.70;;;;;;;;;;5083114;28;20021;-75
2022/07/18 07:45:56;;;;;;;7.43;3.30;;;;;;;;;;5089925;28;20024;-78
2022/07/18 07:48:22;;;;;;;11.70;3.58;;;;;;;;;;5078761;28;20023;-78
2022/07/18 07:50:50;;;;;;;7.72;3.10;;;;;;;;;;5075304;28;20073;-72
2022/07/18 07:53:16;;;;;;;8.00;3.17;;;;;;;;;;5084156;28;20385;-70
2022/07/18 07:55:42;;;;;;;4.35;2.85;;;;;;;;;;5091060;28;20398;-69
2022/07/18 07:58:09;;;;;;;4.88;2.80;;;;;;;;;;5075504;28;20024;-74
2022/07/18 08:00:35;;;;;;;3.67;2.45;;;;;;;;;;5080632;28;20027;-73
2022/07/18 08:03:03;;;;;;;8.93;2.45;;;;;;;;;;5086132;28;20024;-74
2022/07/18 08:05:30;;;;;;;7.65;2.92;;;;;;;;;;5086139;28;20108;-73
2022/07/18 08:07:57;;;;;;;8.48;2.80;;;;;;;;;;5079699;28;20021;-76
2022/07/18 08:10:23;;;;;;;5.22;2.53;;;;;;;;;;5092549;28;20024;-75
2022/07/18 08:12:49;;;;;;;5.97;2.90;;;;;;;;;;5082680;28;20023;-76
2022/07/18 08:15:15;;;;;;;7.47;2.85;;;;;;;;;;5084108;28;20039;-75
2022/07/18 08:17:41;;;;;;;10.07;3.38;;;;;;;;;;5091981;28;20098;-74
2022/07/18 08:20:08;;;;;;;8.13;2.67;;;;;;;;;;5098218;28;20024;-74
2022/07/18 08:22:34;;;;;;;5.47;2.47;;;;;;;;;;5085483;28;20024;-75
2022/07/18 08:25:01;;;;;;;12.15;3.35;;;;;;;;;;5084522;28;20400;-73
2022/07/18 08:27:27;;;;;;;6.53;2.65;;;;;;;;;;5081990;28;20035;-73
2022/07/18 08:29:53;;;;;;;5.85;2.58;;;;;;;;;;5083480;28;20081;-75
2022/07/18 08:32:19;;;;;;;7.65;3.00;;;;;;;;;;5082870;28;20028;-73
2022/07/18 08:34:45;;;;;;;3.58;2.30;;;;;;;;;;5076610;28;20545;-71
2022/07/18 08:37:11;;;;;;;10.43;2.97;;;;;;;;;;5076288;28;20028;-70
2022/07/18 08:39:37;;;;;;;5.68;2.40;;;;;;;;;;5077979;28;20036;-69
2022/07/18 08:42:03;;;;;;;9.68;2.53;;;;;;;;;;5090016;28;20029;-69
2022/07/18 08:44:30;;;;;;;3.92;2.20;;;;;;;;;;5075424;28;20386;-69
2022/07/18 08:46:57;;;;;;;5.13;2.40;;;;;;;;;;5089088;28;20020;-73
2022/07/18 08:49:24;;;;;;;4.72;2.78;;;;;;;;;;5083382;28;20027;-75
2022/07/18 08:51:51;;;;;;;6.53;3.00;;;;;;;;;;5085230;28;20055;-73
2022/07/18 08:54:17;;;;;;;4.60;2.25;;;;;;;;;;5087869;28;20036;-72
2022/07/18 08:56:43;;;;;;;14.07;3.25;;;;;;;;;;5082731;28;20048;-69
2022/07/18 08:59:09;;;;;;;8.68;2.30;;;;;;;;;;5086627;28;20386;-72
2022/07/18 09:01:35;;;;;;;5.45;2.47;;;;;;;;;;5087062;28;20035;-72
2022/07/18 09:04:18;;;;;;;7.57;2.60;;;;;;;;;;5092311;28;20024;-71
2022/07/18 09:06:48;;;;;;;11.52;2.67;;;;;;;;;;5089964;28;20389;-73
2022/07/18 09:09:15;;;;;;;5.07;2.22;;;;;;;;;;5093076;28;20466;-70
2022/07/18 09:11:51;;;;;;;3.50;2.17;;;;;;;;;;5092355;28;20382;-72
2022/07/18 09:14:29;;;;;;;9.57;2.08;;;;;;;;;;5085364;28;20515;-73
2022/07/18 09:17:03;;;;;;;9.98;2.30;;;;;;;;;;5089715;28;20035;-74
2022/07/18 09:19:29;;;;;;;7.43;2.40;;;;;;;;;;5076809;28;20028;-71
2022/07/18 09:22:11;;;;;;;3.58;2.10;;;;;;;;;;5078977;28;20024;-73
2022/07/18 09:24:50;;;;;;;3.38;2.00;;;;;;;;;;5092940;28;20036;-72
2022/07/18 09:27:27;;;;;;;37.85;4.13;;;;;;;;;;5085648;28;20074;-73
2022/07/18 09:30:09;;;;;;;4.40;1.90;;;;;;;;;;5089187;28;20035;-73
2022/07/18 09:32:36;;;;;;;9.82;2.38;;;;;;;;;;5085304;28;20055;-70
2022/07/18 09:35:06;;;;;;;5.25;2.10;;;;;;;;;;5085476;28;20028;-76
2022/07/18 09:37:32;;;;;;;2.42;1.80;;;;;;;;;;5083478;28;20032;-73
2022/07/18 09:40:18;;;;;;;4.57;2.10;;;;;;;;;;5090121;28;20027;-70
2022/07/18 09:42:49;;;;;;;4.72;2.20;;;;;;;;;;5082826;28;20028;-77
2022/07/18 09:45:15;;;;;;;3.60;2.30;;;;;;;;;;5081210;28;20173;-70
2022/07/18 09:47:54;;;;;;;8.63;2.50;;;;;;;;;;5075573;28;20123;-69
2022/07/18 09:50:47;;;;;;;10.60;2.88;;;;;;;;;;5092165;28;20028;-74
2022/07/18 09:53:15;;;;;;;7.93;2.00;;;;;;;;;;5092164;28;20040;-70
2022/07/18 09:55:45;;;;;;;7.93;2.40;;;;;;;;;;5085227;28;20042;-69
2022/07/18 09:58:12;;;;;;;4.35;2.20;;;;;;;;;;5090779;28;20050;-72
2022/07/18 10:00:38;;;;;;;4.72;2.30;;;;;;;;;;5082363;28;20473;-71
2022/07/18 10:03:06;;;;;;;5.20;2.33;;;;;;;;;;5078911;28;20036;-74
2022/07/18 10:05:33;;;;;;;5.28;2.17;;;;;;;;;;5090780;28;20434;-69
2022/07/18 10:08:01;;;;;;;7.18;2.22;;;;;;;;;;5096925;28;20048;-72
2022/07/18 10:10:28;;;;;;;5.82;2.20;;;;;;;;;;5091854;28;20054;-71
2022/07/18 10:12:55;;;;;;;7.30;2.05;;;;;;;;;;5087308;28;20065;-72
2022/07/18 10:15:22;;;;;;;5.18;2.13;;;;;;;;;;5089665;28;20036;-73
2022/07/18 10:17:48;;;;;;;3.72;2.40;;;;;;;;;;5086761;28;20023;-72
2022/07/18 10:20:15;;;;;;;11.05;2.70;;;;;;;;;;5079524;28;20027;-71
2022/07/18 10:22:44;;;;;;;4.07;1.95;;;;;;;;;;5079108;28;20370;-73
2022/07/18 10:25:11;;;;;;;4.60;2.20;;;;;;;;;;5084310;28;20366;-71
2022/07/18 10:28:06;;;;;;;3.60;2.20;;;;;;;;;;5084196;28;20020;-73
2022/07/18 10:30:34;;;;;;;5.47;2.20;;;;;;;;;;5087996;28;20047;-73
2022/07/18 10:33:00;;;;;;;3.97;2.20;;;;;;;;;;5095532;28;20042;-72
2022/07/18 10:36:02;;;;;;;3.67;2.30;;;;;;;;;;5089205;28;20079;-71
2022/07/18 10:38:28;;;;;;;25.05;2.85;;;;;;;;;;5026817;28;20029;-73
2022/07/18 10:41:03;;;;;;;3.38;2.00;;;;;;;;;;5032600;28;20064;-75
2022/07/18 10:43:29;;;;;;;2.92;1.90;;;;;;;;;;5035458;28;20049;-76
2022/07/18 10:45:56;;;;;;;4.07;2.17;;;;;;;;;;5031253;28;20079;-71
2022/07/18 10:48:42;;;;;;;5.10;1.95;;;;;;;;;;5016146;28;20225;-69
2022/07/18 10:51:09;;;;;;;9.27;2.42;;;;;;;;;;5011244;28;20106;-69
2022/07/18 10:53:58;;;;;;;3.28;2.17;;;;;;;;;;5029716;28;20071;-70
2022/07/18 10:56:30;;;;;;;4.30;2.20;;;;;;;;;;4951668;28;20074;-68
2022/07/18 10:58:56;;;;;;;4.72;2.20;;;;;;;;;;4953252;28;20031;-69
2022/07/18 11:01:24;;;;;;;2.75;2.10;;;;;;;;;;4956922;28;20138;-70
2022/07/18 11:03:50;;;;;;;3.58;1.98;;;;;;;;;;4953972;28;20161;-70
2022/07/18 11:06:16;;;;;;;3.53;2.05;;;;;;;;;;4957686;28;20035;-70
2022/07/18 11:08:42;;;;;;;3.70;2.15;;;;;;;;;;4971730;28;20077;-69
2022/07/18 11:11:10;;;;;;;3.42;2.08;;;;;;;;;;4972179;28;20026;-69
2022/07/18 11:13:38;;;;;;;2.67;1.92;;;;;;;;;;4995547;28;20030;-69
2022/07/18 11:16:13;;;;;;;4.65;2.17;;;;;;;;;;4990906;28;20047;-69
2022/07/18 11:18:39;;;;;;;5.82;2.25;;;;;;;;;;5003512;28;20419;-69
2022/07/18 11:21:17;;;;;;;4.25;1.80;;;;;;;;;;5011122;28;20042;-70
2022/07/18 11:23:46;;;;;;;3.42;2.10;;;;;;;;;;5009547;28;20044;-69
2022/07/18 11:26:22;;;;;;;3.45;2.10;;;;;;;;;;4991552;28;20035;-69
2022/07/18 11:28:48;;;;;;;3.45;1.95;;;;;;;;;;4991686;28;20122;-69
2022/07/18 11:31:17;;;;;;;2.67;2.00;;;;;;;;;;4998908;28;20087;-69
2022/07/18 11:33:48;;;;;;;3.55;2.15;;;;;;;;;;5053444;28;20084;-69
2022/07/18 11:36:15;;;;;;;2.80;1.90;;;;;;;;;;5090318;28;20062;-70
2022/07/18 11:38:47;;;;;;;3.72;2.30;;;;;;;;;;5080541;28;20021;-70
2022/07/18 11:41:14;;;;;;;3.78;2.47;;;;;;;;;;5072768;28;20121;-69
2022/07/18 11:43:40;;;;;;;3.53;2.33;;;;;;;;;;5083085;28;20032;-69
2022/07/18 11:46:06;;;;;;;2.90;2.15;;;;;;;;;;5082357;28;20024;-70
2022/07/18 11:48:32;;;;;;;5.00;2.17;;;;;;;;;;5073857;28;20024;-70
2022/07/18 11:50:59;;;;;;;4.60;2.00;;;;;;;;;;5076751;28;20466;-69
2022/07/18 11:53:25;;;;;;;4.05;1.90;;;;;;;;;;5080196;28;20029;-69
2022/07/18 11:55:53;;;;;;;3.25;2.08;;;;;;;;;;5080504;28;20031;-70
2022/07/18 11:58:20;;;;;;;2.45;2.08;;;;;;;;;;5094807;28;20060;-69
2022/07/18 12:00:47;;;;;;;4.78;2.20;;;;;;;;;;5079523;28;20050;-70
2022/07/18 12:03:17;;;;;;;3.17;2.00;;;;;;;;;;5091790;28;20449;-69
2022/07/18 12:05:48;;;;;;;4.03;2.20;;;;;;;;;;5077508;28;20032;-70
2022/07/18 12:08:27;;;;;;;6.65;2.10;;;;;;;;;;5081378;28;20020;-69
2022/07/18 12:11:06;;;;;;;3.22;1.88;;;;;;;;;;5079746;28;20446;-69
2022/07/18 12:13:50;;;;;;;2.83;2.10;;;;;;;;;;5085048;28;20030;-70
2022/07/18 12:16:25;;;;;;;3.25;2.00;;;;;;;;;;5074222;28;20501;-69
2022/07/18 12:18:51;;;;;;;2.83;1.90;;;;;;;;;;5081013;28;20036;-69
2022/07/18 12:21:17;;;;;;;5.30;2.42;;;;;;;;;;5072001;28;20033;-69
2022/07/18 12:23:43;;;;;;;179.60;18.92;;;;;;;;;;5088900;28;20073;-70
2022/07/18 12:26:09;;;;;;;90.28;11.25;;;;;;;;;;5086469;28;20028;-69
2022/07/18 12:28:36;;;;;;;92.13;12.10;;;;;;;;;;5075020;28;20031;-70
2022/07/18 12:31:02;;;;;;;25.30;4.30;;;;;;;;;;5086707;28;20012;-70
2022/07/18 12:33:28;;;;;;;14.52;3.45;;;;;;;;;;5072223;28;20047;-69
2022/07/18 12:35:58;;;;;;;8.82;2.88;;;;;;;;;;5086250;28;20029;-69
2022/07/18 12:38:24;;;;;;;10.63;2.80;;;;;;;;;;5082338;28;20389;-69
2022/07/18 12:40:58;;;;;;;13.57;3.50;;;;;;;;;;5085799;28;20107;-70
2022/07/18 12:43:26;;;;;;;7.05;2.60;;;;;;;;;;5072030;28;20032;-69
2022/07/18 12:45:53;;;;;;;5.53;2.30;;;;;;;;;;5078173;28;20116;-69
2022/07/18 12:48:19;;;;;;;6.15;2.88;;;;;;;;;;5073171;28;20488;-70
2022/07/18 12:50:45;;;;;;;3.60;2.22;;;;;;;;;;5091994;28;20027;-70
2022/07/18 12:53:12;;;;;;;3.53;2.20;;;;;;;;;;5076083;28;20044;-70
2022/07/18 12:55:39;;;;;;;2.15;1.95;;;;;;;;;;5071849;28;20032;-70
2022/07/18 12:58:06;;;;;;;2.70;2.00;;;;;;;;;;5078227;28;20532;-69
2022/07/18 13:00:32;;;;;;;3.92;2.40;;;;;;;;;;5089884;28;20431;-69
2022/07/18 13:02:58;;;;;;;4.40;2.58;;;;;;;;;;5071796;28;20051;-69
2022/07/18 13:05:25;;;;;;;3.35;2.17;;;;;;;;;;5079421;28;20029;-69
2022/07/18 13:07:51;;;;;;;8.98;2.28;;;;;;;;;;5078064;28;20100;-69
2022/07/18 13:10:17;;;;;;;6.20;2.30;;;;;;;;;;5090144;28;20370;-69
2022/07/18 13:12:44;;;;;;;3.80;1.90;;;;;;;;;;5094151;28;20400;-69
2022/07/18 13:15:10;;;;;;;5.20;2.10;;;;;;;;;;5072039;28;20504;-70
2022/07/18 13:17:36;;;;;;;2.95;1.88;;;;;;;;;;5085444;28;20470;-69
2022/07/18 13:20:02;;;;;;;4.85;2.13;;;;;;;;;;5076859;28;20067;-70
2022/07/18 13:22:31;;;;;;;4.93;2.40;;;;;;;;;;5084750;28;20393;-70
2022/07/18 13:24:58;;;;;;;7.47;2.17;;;;;;;;;;5070499;28;20447;-71
2022/07/18 13:27:24;;;;;;;5.30;2.22;;;;;;;;;;5083408;28;20488;-69
2022/07/18 13:29:50;;;;;;;5.70;2.10;;;;;;;;;;5084661;28;20576;-70
2022/07/18 13:32:16;;;;;;;4.93;2.10;;;;;;;;;;5080960;28;20107;-70
2022/07/18 13:34:42;;;;;;;12.70;2.70;;;;;;;;;;5084847;28;20032;-71
2022/07/18 13:37:08;;;;;;;3.33;2.03;;;;;;;;;;5079912;28;20027;-71
2022/07/18 13:39:34;;;;;;;4.78;2.40;;;;;;;;;;5095767;28;20028;-72
2022/07/18 13:42:02;;;;;;;8.82;2.88;;;;;;;;;;5096228;28;20020;-72
2022/07/18 13:44:28;;;;;;;6.22;2.80;;;;;;;;;;5083666;28;20103;-71
2022/07/18 13:46:54;;;;;;;5.05;2.10;;;;;;;;;;5104816;28;20367;-74
2022/07/18 13:49:20;;;;;;;7.15;2.40;;;;;;;;;;5090067;28;20370;-72
2022/07/18 13:51:46;;;;;;;3.40;2.13;;;;;;;;;;5086099;28;20052;-72
2022/07/18 13:54:16;;;;;;;4.05;1.88;;;;;;;;;;5078462;28;20032;-71
2022/07/18 13:56:42;;;;;;;5.20;2.30;;;;;;;;;;5093222;28;20028;-75
2022/07/18 13:59:08;;;;;;;3.78;2.15;;;;;;;;;;5083192;28;20081;-75
2022/07/18 14:01:34;;;;;;;7.30;2.53;;;;;;;;;;5092269;28;20081;-72
2022/07/18 14:04:00;;;;;;;4.07;2.08;;;;;;;;;;5083703;28;20020;-73
2022/07/18 14:06:27;;;;;;;14.18;3.60;;;;;;;;;;5095700;28;20099;-74
2022/07/18 14:08:53;;;;;;;15.73;2.70;;;;;;;;;;5087627;28;20342;-72
2022/07/18 14:11:19;;;;;;;4.00;2.15;;;;;;;;;;5094485;28;20028;-73
2022/07/18 14:13:46;;;;;;;6.97;2.10;;;;;;;;;;5094148;28;20027;-72
2022/07/18 14:16:13;;;;;;;12.60;2.72;;;;;;;;;;5092254;28;20032;-72
2022/07/18 14:18:39;;;;;;;7.57;2.38;;;;;;;;;;5094268;28;20016;-73
2022/07/18 14:21:05;;;;;;;9.27;2.58;;;;;;;;;;5088743;28;20107;-73
2022/07/18 14:23:31;;;;;;;7.30;2.15;;;;;;;;;;5089307;28;20385;-71
2022/07/18 14:25:58;;;;;;;3.15;2.25;;;;;;;;;;5089931;28;20031;-71
2022/07/18 14:28:24;;;;;;;5.00;2.35;;;;;;;;;;5096844;28;20102;-69
2022/07/18 14:30:50;;;;;;;6.22;2.53;;;;;;;;;;5085294;28;20032;-70
2022/07/18 14:33:16;;;;;;;4.85;1.92;;;;;;;;;;5084968;28;20501;-72
2022/07/18 14:35:42;;;;;;;7.00;2.47;;;;;;;;;;5082048;28;20032;-72
2022/07/18 14:38:08;;;;;;;4.90;2.20;;;;;;;;;;5081572;28;20021;-70
2022/07/18 14:40:34;;;;;;;7.97;2.80;;;;;;;;;;5100975;28;20051;-73
2022/07/18 14:43:00;;;;;;;18.52;4.07;;;;;;;;;;5080857;28;20028;-74
2022/07/18 14:45:26;;;;;;;4.50;2.10;;;;;;;;;;5086865;28;20099;-73